createdAt,value
2017-07-17T00:01:10.871Z,3.08
2017-07-17T00:03:38.944Z,3.05
2017-07-17T00:06:06.995Z,3.10
2017-07-17T00:08:35.075Z,2.80
2017-07-17T00:11:03.927Z,2.90
2017-07-17T00:13:31.988Z,3.75
2017-07-17T00:16:00.043Z,3.92
2017-07-17T00:18:28.531Z,3.20
2017-07-17T00:20:56.583Z,3.58
2017-07-17T00:23:24.642Z,3.60
2017-07-17T00:25:53.487Z,3.20
2017-07-17T00:28:21.574Z,3.22
2017-07-17T00:30:50.395Z,2.75
2017-07-17T00:33:18.451Z,3.15
2017-07-17T00:35:46.859Z,3.95
2017-07-17T00:38:14.915Z,2.97
2017-07-17T00:40:42.970Z,2.42
2017-07-17T00:43:11.064Z,3.08
2017-07-17T00:45:39.114Z,3.45
2017-07-17T00:48:07.175Z,2.95
2017-07-17T00:50:36.039Z,3.83
2017-07-17T00:53:04.094Z,2.95
2017-07-17T00:55:32.551Z,3.10
2017-07-17T00:58:00.639Z,5.60
2017-07-17T01:00:28.695Z,3.08
2017-07-17T01:02:57.515Z,3.30
2017-07-17T01:05:25.607Z,3.08
2017-07-17T01:07:53.671Z,3.05
2017-07-17T01:10:21.723Z,3.83
2017-07-17T01:12:49.811Z,3.65
2017-07-17T01:15:17.875Z,3.33
2017-07-17T01:17:45.930Z,3.85
2017-07-17T01:20:14.036Z,2.83
2017-07-17T01:22:42.085Z,3.20
2017-07-17T01:25:10.147Z,5.35
2017-07-17T01:27:38.218Z,3.47
2017-07-17T01:30:06.286Z,3.22
2017-07-17T01:32:34.769Z,4.35
2017-07-17T01:35:02.819Z,5.75
2017-07-17T01:37:30.881Z,3.22
2017-07-17T01:39:58.947Z,4.43
2017-07-17T01:42:27.005Z,6.45
2017-07-17T01:44:55.854Z,3.15
2017-07-17T01:47:23.905Z,4.00
2017-07-17T01:49:51.949Z,3.42
2017-07-17T01:52:20.034Z,3.20
2017-07-17T01:54:48.082Z,3.90
2017-07-17T01:57:16.894Z,3.40
2017-07-17T01:59:44.962Z,3.78
2017-07-17T02:02:13.029Z,2.80
2017-07-17T02:04:41.101Z,3.33
2017-07-17T02:07:09.149Z,6.78
2017-07-17T02:09:37.962Z,3.30
2017-07-17T02:12:06.430Z,4.70
2017-07-17T02:14:34.481Z,5.93
2017-07-17T02:17:02.533Z,4.20
2017-07-17T02:19:30.618Z,3.08
2017-07-17T02:21:58.666Z,3.00
2017-07-17T02:24:26.722Z,3.20
2017-07-17T02:26:54.800Z,3.58
2017-07-17T02:29:22.848Z,7.32
2017-07-17T02:31:50.894Z,7.43
2017-07-17T02:34:19.005Z,4.25
2017-07-17T02:36:47.058Z,4.10
2017-07-17T02:39:15.102Z,3.47
2017-07-17T02:41:43.950Z,3.28
2017-07-17T02:44:11.997Z,3.75
2017-07-17T02:46:40.051Z,3.28
2017-07-17T02:49:08.113Z,4.45
2017-07-17T02:51:36.952Z,8.02
2017-07-17T02:54:05.003Z,3.97
2017-07-17T02:56:33.069Z,4.50
2017-07-17T02:59:01.125Z,5.15
2017-07-17T03:01:29.965Z,8.27
2017-07-17T03:03:58.013Z,5.45
2017-07-17T03:06:26.066Z,5.05
2017-07-17T03:08:54.150Z,5.70
2017-07-17T03:11:22.197Z,4.12
2017-07-17T03:13:51.013Z,4.93
2017-07-17T03:16:19.115Z,10.68
2017-07-17T03:18:47.161Z,6.62
2017-07-17T03:21:15.606Z,5.07
2017-07-17T03:23:56.375Z,3.83
2017-07-17T03:26:25.190Z,4.00
2017-07-17T03:28:53.513Z,5.35
2017-07-17T03:31:21.988Z,5.43
2017-07-17T03:33:50.041Z,6.32
2017-07-17T03:36:18.088Z,6.75
2017-07-17T03:38:46.546Z,4.40
2017-07-17T03:41:15.366Z,4.60
2017-07-17T03:43:43.445Z,4.78
2017-07-17T03:46:11.494Z,4.57
2017-07-17T03:48:39.542Z,4.78
2017-07-17T03:51:08.382Z,5.53
2017-07-17T03:53:36.435Z,5.72
2017-07-17T03:56:04.497Z,5.57
2017-07-17T03:58:32.545Z,4.80
2017-07-17T04:01:00.629Z,4.75
2017-07-17T04:03:29.446Z,5.57
2017-07-17T04:05:57.504Z,7.43
2017-07-17T04:08:25.577Z,6.03
2017-07-17T04:10:54.018Z,4.50
2017-07-17T04:13:22.066Z,8.32
2017-07-17T04:15:50.142Z,7.62
2017-07-17T04:18:18.587Z,5.00
2017-07-17T04:20:47.034Z,4.68
2017-07-17T04:23:15.097Z,7.10
2017-07-17T04:25:43.205Z,5.60
2017-07-17T04:28:11.255Z,6.80
2017-07-17T04:30:39.301Z,6.00
2017-07-17T04:33:07.377Z,4.80
2017-07-17T04:35:35.426Z,5.15
2017-07-17T04:38:03.488Z,5.40
2017-07-17T04:40:31.541Z,7.22
2017-07-17T04:43:00.017Z,5.35
2017-07-17T04:45:28.065Z,9.18
2017-07-17T04:47:56.886Z,4.80
2017-07-17T04:50:24.953Z,5.72
2017-07-17T04:52:52.997Z,5.70
2017-07-17T04:55:21.850Z,6.18
2017-07-17T04:57:49.883Z,6.55
2017-07-17T05:00:17.949Z,5.22
2017-07-17T05:02:46.766Z,5.03
2017-07-17T05:05:14.829Z,4.90
2017-07-17T05:07:43.649Z,5.10
2017-07-17T05:10:11.725Z,10.90
2017-07-17T05:12:41.342Z,7.85
2017-07-17T05:15:09.794Z,6.32
2017-07-17T05:17:38.608Z,9.45
2017-07-17T05:20:06.689Z,10.80
2017-07-17T05:22:34.741Z,6.10
2017-07-17T05:25:02.791Z,5.50
2017-07-17T05:27:32.010Z,4.60
2017-07-17T05:30:00.065Z,12.18
2017-07-17T05:32:28.151Z,45.00
2017-07-17T05:34:56.985Z,29.23
2017-07-17T05:37:25.437Z,27.35
2017-07-17T05:39:53.527Z,11.18
2017-07-17T05:42:21.593Z,9.35
2017-07-17T05:44:50.037Z,6.53
2017-07-17T05:47:18.160Z,4.72
2017-07-17T05:49:46.965Z,8.27
2017-07-17T05:52:15.014Z,6.47
2017-07-17T05:54:43.103Z,5.18
2017-07-17T05:57:11.550Z,7.25
2017-07-17T05:59:39.598Z,5.25
2017-07-17T06:02:07.685Z,5.90
2017-07-17T06:04:35.737Z,6.05
2017-07-17T06:07:03.784Z,5.82
2017-07-17T06:09:31.865Z,6.10
2017-07-17T06:11:59.917Z,6.20
2017-07-17T06:14:27.970Z,6.78
2017-07-17T06:16:56.798Z,5.40
2017-07-17T06:19:25.645Z,5.50
2017-07-17T06:21:54.460Z,6.37
2017-07-17T06:24:22.505Z,6.85
2017-07-17T06:26:50.577Z,7.07
2017-07-17T06:29:18.621Z,6.22
2017-07-17T06:31:46.693Z,5.60
2017-07-17T06:34:14.749Z,4.75
2017-07-17T06:36:42.797Z,6.15
2017-07-17T06:39:11.001Z,6.43
2017-07-17T06:41:39.053Z,6.85
2017-07-17T06:44:07.106Z,6.37
2017-07-17T06:46:36.058Z,7.30
2017-07-17T06:49:04.106Z,4.97
2017-07-17T06:51:32.555Z,5.85
2017-07-17T06:54:00.722Z,6.30
2017-07-17T06:56:29.534Z,7.95
2017-07-17T06:58:58.976Z,6.75
2017-07-17T07:01:27.025Z,6.10
2017-07-17T07:03:55.090Z,6.20
2017-07-17T07:06:23.140Z,6.00
2017-07-17T07:08:51.585Z,6.82
2017-07-17T07:11:19.654Z,8.15
2017-07-17T07:13:47.705Z,10.85
2017-07-17T07:16:15.773Z,8.93
2017-07-17T07:18:43.853Z,8.52
2017-07-17T07:21:11.909Z,10.32
2017-07-17T07:23:39.960Z,10.38
2017-07-17T07:26:08.058Z,19.80
2017-07-17T07:28:36.113Z,17.98
2017-07-17T07:31:04.173Z,8.18
2017-07-17T07:33:32.230Z,9.82
2017-07-17T07:36:01.065Z,7.80
2017-07-17T07:38:29.135Z,6.10
2017-07-17T07:40:57.181Z,7.10
2017-07-17T07:43:25.230Z,7.85
2017-07-17T07:45:54.063Z,10.55
2017-07-17T07:48:22.134Z,6.47
2017-07-17T07:50:50.233Z,8.20
2017-07-17T07:53:18.282Z,7.78
2017-07-17T07:55:46.334Z,7.25
2017-07-17T07:58:14.407Z,8.15
2017-07-17T08:00:42.457Z,8.13
2017-07-17T08:03:10.509Z,7.72
2017-07-17T08:05:39.150Z,8.98
2017-07-17T08:08:07.913Z,9.27
2017-07-17T08:10:35.976Z,7.60
2017-07-17T08:13:04.061Z,12.73
2017-07-17T08:15:32.112Z,7.93
2017-07-17T08:18:00.165Z,7.70
2017-07-17T08:20:28.993Z,8.38
2017-07-17T08:22:57.069Z,7.60
2017-07-17T08:25:25.116Z,9.38
2017-07-17T08:27:53.250Z,7.75
2017-07-17T08:30:21.338Z,7.78
2017-07-17T08:32:49.391Z,8.35
2017-07-17T08:35:17.438Z,7.62
2017-07-17T08:37:45.513Z,9.93
2017-07-17T08:40:13.563Z,8.60
2017-07-17T08:42:41.614Z,8.48
2017-07-17T08:45:10.453Z,9.32
2017-07-17T08:47:38.497Z,7.20
2017-07-17T08:50:06.570Z,7.53
2017-07-17T08:52:34.622Z,7.68
2017-07-17T08:55:03.430Z,7.57
2017-07-17T08:57:31.505Z,6.75
2017-07-17T08:59:59.949Z,7.80
2017-07-17T09:02:28.770Z,8.20
2017-07-17T09:04:56.845Z,7.97
2017-07-17T09:07:24.897Z,6.22
2017-07-17T09:09:53.714Z,7.57
2017-07-17T09:12:21.826Z,9.02
2017-07-17T09:14:49.873Z,8.23
2017-07-17T09:17:17.922Z,7.28
2017-07-17T09:19:45.987Z,8.38
2017-07-17T09:22:14.037Z,8.05
2017-07-17T09:24:42.874Z,8.85
2017-07-17T09:27:10.925Z,6.68
2017-07-17T09:29:38.987Z,6.78
2017-07-17T09:32:07.053Z,7.55
2017-07-17T09:34:35.102Z,9.90
2017-07-17T09:37:03.919Z,7.20
2017-07-17T09:39:32.381Z,7.87
2017-07-17T09:42:01.201Z,8.80
2017-07-17T09:44:29.272Z,7.43
2017-07-17T09:46:57.322Z,6.80
2017-07-17T09:49:26.197Z,9.57
2017-07-17T09:51:55.014Z,7.45
2017-07-17T09:54:23.066Z,7.45
2017-07-17T09:56:51.897Z,7.22
2017-07-17T09:59:19.987Z,7.53
2017-07-17T10:01:48.038Z,8.68
2017-07-17T10:04:16.081Z,9.57
2017-07-17T10:06:44.163Z,8.80
2017-07-17T10:09:12.217Z,7.55
2017-07-17T10:11:41.057Z,7.43
2017-07-17T10:14:09.117Z,7.50
2017-07-17T10:16:37.163Z,6.50
2017-07-17T10:19:05.209Z,7.20
2017-07-17T10:21:34.610Z,7.20
2017-07-17T10:24:02.657Z,7.53
2017-07-17T10:26:30.710Z,7.20
2017-07-17T10:28:58.774Z,7.93
2017-07-17T10:31:26.853Z,8.15
2017-07-17T10:33:54.910Z,9.18
2017-07-17T10:36:22.957Z,9.93
2017-07-17T10:38:51.025Z,9.75
2017-07-17T10:41:19.842Z,8.75
2017-07-17T10:43:47.916Z,9.32
2017-07-17T10:46:15.966Z,7.62
2017-07-17T10:48:44.790Z,9.98
2017-07-17T10:51:12.853Z,8.25
2017-07-17T10:53:40.921Z,9.73
2017-07-17T10:56:09.070Z,10.20
2017-07-17T10:58:37.129Z,10.05
2017-07-17T11:01:05.946Z,8.45
2017-07-17T11:03:34.034Z,8.75
2017-07-17T11:06:02.113Z,8.68
2017-07-17T11:08:30.168Z,8.88
2017-07-17T11:10:58.240Z,7.70
2017-07-17T11:13:26.290Z,8.05
2017-07-17T11:15:54.370Z,8.90
2017-07-17T11:18:22.422Z,9.93
2017-07-17T11:20:51.238Z,8.52
2017-07-17T11:23:19.301Z,9.40
2017-07-17T11:25:47.354Z,7.90
2017-07-17T11:28:16.192Z,8.23
2017-07-17T11:30:44.240Z,9.68
2017-07-17T11:33:12.317Z,9.50
2017-07-17T11:35:40.365Z,9.38
2017-07-17T11:38:08.445Z,9.27
2017-07-17T11:40:36.526Z,7.45
2017-07-17T11:43:04.590Z,8.57
2017-07-17T11:45:32.675Z,8.50
2017-07-17T12:00:35.855Z,7.37
2017-07-17T12:03:03.916Z,7.07
2017-07-17T12:08:00.083Z,9.32
2017-07-17T12:10:28.147Z,8.90
2017-07-17T12:12:56.231Z,8.43
2017-07-17T12:15:24.268Z,9.10
2017-07-17T12:17:52.350Z,8.23
2017-07-17T12:20:21.159Z,8.70
2017-07-17T12:22:49.200Z,7.97
2017-07-17T12:25:17.278Z,8.82
2017-07-17T12:27:45.317Z,7.93
2017-07-17T12:30:13.365Z,7.00
2017-07-17T12:32:41.436Z,8.05
2017-07-17T12:35:09.514Z,7.07
2017-07-17T12:37:37.566Z,8.30
2017-07-17T12:40:05.613Z,9.93
2017-07-17T12:42:33.676Z,8.02
2017-07-17T12:45:01.784Z,8.45
2017-07-17T12:47:29.833Z,8.88
2017-07-17T12:49:57.884Z,7.60
2017-07-17T12:52:25.959Z,7.53
2017-07-17T12:54:54.018Z,7.90
2017-07-17T12:57:22.845Z,8.40
2017-07-17T12:59:50.913Z,8.40
2017-07-17T13:02:18.998Z,8.32
2017-07-17T13:04:47.044Z,8.50
2017-07-17T13:07:15.093Z,8.90
2017-07-17T13:09:43.916Z,8.30
2017-07-17T13:12:12.003Z,9.07
2017-07-17T13:14:40.049Z,9.02
2017-07-17T13:17:08.489Z,10.30
2017-07-17T13:19:36.590Z,7.43
2017-07-17T13:22:05.029Z,8.63
2017-07-17T13:24:33.083Z,9.05
2017-07-17T13:27:01.557Z,8.55
2017-07-17T13:29:30.002Z,8.77
2017-07-17T13:31:58.824Z,9.27
2017-07-17T13:34:27.288Z,8.68
2017-07-17T13:36:55.734Z,8.43
2017-07-17T13:39:23.777Z,7.90
2017-07-17T13:41:52.252Z,9.15
2017-07-17T13:44:20.298Z,8.25
2017-07-17T13:46:48.340Z,9.88
2017-07-17T13:49:16.812Z,8.20
2017-07-17T13:51:45.261Z,8.75
2017-07-17T13:54:13.314Z,9.38
2017-07-17T13:56:41.788Z,9.82
2017-07-17T13:59:10.244Z,9.90
2017-07-17T14:01:39.048Z,10.73
2017-07-17T14:04:07.509Z,10.38
2017-07-17T14:06:36.328Z,11.73
2017-07-17T14:09:04.721Z,9.82
2017-07-17T14:11:33.499Z,10.18
2017-07-17T14:14:01.563Z,11.18
2017-07-17T14:16:29.629Z,9.63
2017-07-17T14:18:57.673Z,9.55
2017-07-17T14:21:26.117Z,9.02
2017-07-17T14:23:54.584Z,8.98
2017-07-17T14:26:22.643Z,9.65
2017-07-17T14:28:50.685Z,9.70
2017-07-17T14:31:18.758Z,9.68
2017-07-17T14:33:47.572Z,10.30
2017-07-17T14:36:15.646Z,9.18
2017-07-17T14:38:43.688Z,10.23
2017-07-17T14:41:12.496Z,9.93
2017-07-17T14:43:40.569Z,8.55
2017-07-17T14:46:08.623Z,9.77
2017-07-17T14:48:37.429Z,10.27
2017-07-17T14:51:05.501Z,10.38
2017-07-17T14:53:33.561Z,11.70
2017-07-17T14:56:02.410Z,9.75
2017-07-17T14:58:30.487Z,9.70
2017-07-17T15:00:58.536Z,10.30
2017-07-17T15:03:26.589Z,10.90
2017-07-17T15:05:54.642Z,9.60
2017-07-17T15:08:22.718Z,8.43
2017-07-17T15:10:50.764Z,9.07
2017-07-17T15:13:19.576Z,9.32
2017-07-17T15:15:48.043Z,7.90
2017-07-17T15:18:16.869Z,8.02
2017-07-17T15:20:44.943Z,7.25
2017-07-17T15:23:12.988Z,7.95
2017-07-17T15:25:41.033Z,6.22
2017-07-17T15:28:09.112Z,7.47
2017-07-17T15:30:37.924Z,6.65
2017-07-17T15:33:05.973Z,6.40
2017-07-17T15:35:34.823Z,6.50
2017-07-17T15:38:02.869Z,5.80
2017-07-17T15:40:30.926Z,5.90
2017-07-17T15:42:58.986Z,5.75
2017-07-17T15:45:27.820Z,5.20
2017-07-17T15:47:55.864Z,6.22
2017-07-17T15:50:23.915Z,6.15
2017-07-17T15:52:52.746Z,6.82
2017-07-17T15:55:20.800Z,5.95
2017-07-17T15:57:48.845Z,5.75
2017-07-17T16:00:17.677Z,5.72
2017-07-17T16:02:45.729Z,4.82
2017-07-17T16:05:13.780Z,6.12
2017-07-17T16:07:41.860Z,7.03
2017-07-17T16:10:10.306Z,6.60
2017-07-17T16:12:38.740Z,6.75
2017-07-17T16:15:07.205Z,6.53
2017-07-17T16:17:35.253Z,6.50
2017-07-17T16:20:04.076Z,7.47
2017-07-17T16:22:32.141Z,9.75
2017-07-17T16:25:00.255Z,7.65
2017-07-17T16:27:28.257Z,7.22
2017-07-17T16:29:56.357Z,10.07
2017-07-17T16:32:24.417Z,6.75
2017-07-17T16:34:52.860Z,6.20
2017-07-17T16:37:21.337Z,8.07
2017-07-17T16:39:49.380Z,6.95
2017-07-17T16:42:17.434Z,6.68
2017-07-17T16:44:45.551Z,6.70
2017-07-17T16:47:13.585Z,6.72
2017-07-17T16:49:41.634Z,7.32
2017-07-17T16:52:10.466Z,6.95
2017-07-17T16:54:38.513Z,6.12
2017-07-17T16:57:06.976Z,5.90
2017-07-17T16:59:35.420Z,5.97
2017-07-17T17:02:03.476Z,6.87
2017-07-17T17:04:31.545Z,6.25
2017-07-17T17:06:59.601Z,6.18
2017-07-17T17:09:27.644Z,5.30
2017-07-17T17:11:56.111Z,5.55
2017-07-17T17:14:24.154Z,5.95
2017-07-17T17:16:52.623Z,5.93
2017-07-17T17:19:21.060Z,6.18
2017-07-17T17:21:49.892Z,6.18
2017-07-17T17:24:17.957Z,5.32
2017-07-17T17:26:46.001Z,5.72
2017-07-17T17:29:14.065Z,5.35
2017-07-17T17:31:42.881Z,5.35
2017-07-17T17:34:10.962Z,5.40
2017-07-17T17:36:39.016Z,5.20
2017-07-17T17:39:07.061Z,4.87
2017-07-17T17:41:35.942Z,5.00
2017-07-17T17:44:04.086Z,4.93
2017-07-17T17:46:32.502Z,5.28
2017-07-17T17:49:00.973Z,4.47
2017-07-17T17:51:29.024Z,5.65
2017-07-17T17:53:57.081Z,6.43
2017-07-17T17:56:25.620Z,5.30
2017-07-17T17:58:53.653Z,4.70
2017-07-17T18:01:22.090Z,4.60
2017-07-17T18:03:50.581Z,4.32
2017-07-17T18:06:18.638Z,6.03
2017-07-17T18:08:46.702Z,4.35
2017-07-17T18:11:15.544Z,4.12
2017-07-17T18:13:43.609Z,5.53
2017-07-17T18:16:11.689Z,4.05
2017-07-17T18:18:39.732Z,5.12
2017-07-17T18:21:07.781Z,4.22
2017-07-17T18:23:35.860Z,4.75
2017-07-17T18:26:03.914Z,4.80
2017-07-17T18:28:32.726Z,5.10
2017-07-17T18:31:01.238Z,5.03
2017-07-17T18:33:29.253Z,5.30
2017-07-17T18:35:58.100Z,5.93
2017-07-17T18:38:26.146Z,4.65
2017-07-17T18:40:54.589Z,4.80
2017-07-17T18:43:23.032Z,4.87
2017-07-17T18:45:51.882Z,7.65
2017-07-17T18:48:20.329Z,5.10
2017-07-17T18:50:48.377Z,4.62
2017-07-17T18:53:16.861Z,4.68
2017-07-17T18:55:44.909Z,5.80
2017-07-17T18:58:13.357Z,6.62
2017-07-17T19:00:41.830Z,6.70
2017-07-17T19:03:10.636Z,6.62
2017-07-17T19:05:38.682Z,6.05
2017-07-17T19:08:07.536Z,6.28
2017-07-17T19:10:36.019Z,5.97
2017-07-17T19:13:04.425Z,5.93
2017-07-17T19:15:32.508Z,6.80
2017-07-17T19:18:01.317Z,6.37
2017-07-17T19:20:29.365Z,6.22
2017-07-17T19:22:58.205Z,5.85
2017-07-17T19:25:26.252Z,6.65
2017-07-17T19:27:54.299Z,6.53
2017-07-17T19:30:22.381Z,7.22
2017-07-17T19:32:51.198Z,6.80
2017-07-17T19:35:19.645Z,6.30
2017-07-17T19:37:48.473Z,5.72
2017-07-17T19:40:16.981Z,7.85
2017-07-17T19:42:45.037Z,4.87
2017-07-17T19:45:13.493Z,5.20
2017-07-17T19:47:41.964Z,5.90
2017-07-17T19:50:10.102Z,6.12
2017-07-17T19:52:38.154Z,5.50
2017-07-17T19:55:06.201Z,6.03
2017-07-17T19:57:34.402Z,7.80
2017-07-17T20:00:02.422Z,6.45
2017-07-17T20:02:30.871Z,5.30
2017-07-17T20:04:58.946Z,5.93
2017-07-17T20:07:27.409Z,5.50
2017-07-17T20:09:55.439Z,5.90
2017-07-17T20:12:23.498Z,5.78
2017-07-17T20:14:52.344Z,5.90
2017-07-17T20:17:20.405Z,4.65
2017-07-17T20:19:48.453Z,5.20
2017-07-17T20:22:16.557Z,5.43
2017-07-17T20:24:44.610Z,4.65
2017-07-17T20:27:12.676Z,5.62
2017-07-17T20:29:40.764Z,5.37
2017-07-17T20:32:08.813Z,5.32
2017-07-17T20:34:36.856Z,5.43
2017-07-17T20:37:05.685Z,4.95
2017-07-17T20:39:33.775Z,4.55
2017-07-17T20:42:01.823Z,4.18
2017-07-17T20:44:29.902Z,4.60
2017-07-17T20:46:58.076Z,4.30
2017-07-17T20:49:26.158Z,5.07
2017-07-17T20:51:54.193Z,6.40
2017-07-17T20:54:22.273Z,4.35
2017-07-17T20:56:50.325Z,5.07
2017-07-17T20:59:19.145Z,4.75
2017-07-17T21:01:47.226Z,3.92
2017-07-17T21:04:15.269Z,3.67
2017-07-17T21:06:43.317Z,3.92
2017-07-17T21:09:11.402Z,4.03
2017-07-17T21:11:40.249Z,3.35
2017-07-17T21:14:08.401Z,3.30
2017-07-17T21:16:36.523Z,2.78
2017-07-17T21:19:04.645Z,3.17
2017-07-17T21:21:32.701Z,3.25
2017-07-17T21:24:00.794Z,3.12
2017-07-17T21:26:28.906Z,2.87
2017-07-17T21:28:56.967Z,2.58
2017-07-17T21:31:25.015Z,2.75
2017-07-17T21:33:53.089Z,2.30
2017-07-17T21:36:21.137Z,2.05
2017-07-17T21:38:49.221Z,2.42
2017-07-17T21:41:17.277Z,2.45
2017-07-17T21:43:45.325Z,2.80
2017-07-17T21:46:14.264Z,2.53
2017-07-17T21:48:42.319Z,2.55
2017-07-17T21:51:10.359Z,2.45
2017-07-17T21:53:39.210Z,2.72
2017-07-17T21:56:07.266Z,2.92
2017-07-17T21:58:35.312Z,3.20
2017-07-17T22:01:03.390Z,2.85
2017-07-17T22:03:31.446Z,2.97
2017-07-17T22:06:00.263Z,3.55
2017-07-17T22:08:28.333Z,2.50
2017-07-17T22:10:56.777Z,3.00
2017-07-17T22:13:25.623Z,3.10
2017-07-17T22:15:53.669Z,2.97
2017-07-17T22:18:21.722Z,3.00
2017-07-17T22:20:50.549Z,3.20
2017-07-17T22:23:18.599Z,6.03
2017-07-17T22:25:46.680Z,3.08
2017-07-17T22:28:14.729Z,2.65
2017-07-17T22:30:42.778Z,2.80
2017-07-17T22:33:10.850Z,3.28
2017-07-17T22:35:38.898Z,3.30
2017-07-17T22:38:06.969Z,2.62
2017-07-17T22:40:35.418Z,3.35
2017-07-17T22:43:03.466Z,2.75
2017-07-17T22:45:32.298Z,2.75
2017-07-17T22:48:00.370Z,3.20
2017-07-17T22:50:28.413Z,3.62
2017-07-17T22:52:57.224Z,3.40
2017-07-17T22:55:26.064Z,3.30
2017-07-17T22:57:54.883Z,3.20
2017-07-17T23:00:22.930Z,3.47
2017-07-17T23:02:51.857Z,3.20
2017-07-17T23:05:20.028Z,2.97
2017-07-17T23:07:48.517Z,2.87
2017-07-17T23:10:16.590Z,3.05
2017-07-17T23:12:44.674Z,2.92
2017-07-17T23:15:12.828Z,2.53
2017-07-17T23:17:41.636Z,3.28
2017-07-17T23:20:09.696Z,3.30
2017-07-17T23:22:38.171Z,2.70
2017-07-17T23:36:57.319Z,2.70
2017-07-17T23:39:25.435Z,2.87
2017-07-17T23:41:53.598Z,2.55
2017-07-17T23:44:21.724Z,2.62
2017-07-17T23:46:49.793Z,3.08
2017-07-17T23:49:18.733Z,2.50
2017-07-17T23:51:46.913Z,3.50
2017-07-17T23:54:14.996Z,2.83
2017-07-17T23:56:43.875Z,2.70
2017-07-17T23:59:12.046Z,3.05
